createdAt,value
2018-09-29T00:00:52.302Z,99.90
2018-09-29T00:02:02.507Z,99.90
2018-09-29T00:03:12.305Z,99.90
2018-09-29T00:04:22.250Z,99.90
2018-09-29T00:05:32.238Z,99.90
2018-09-29T00:06:42.508Z,99.90
2018-09-29T00:07:52.438Z,99.90
2018-09-29T00:09:02.674Z,99.90
2018-09-29T00:10:12.783Z,99.90
2018-09-29T00:11:22.768Z,99.90
2018-09-29T00:12:32.958Z,99.90
2018-09-29T00:13:43.099Z,99.90
2018-09-29T00:14:52.918Z,99.90
2018-09-29T00:16:03.000Z,99.90
2018-09-29T00:17:13.069Z,99.90
2018-09-29T00:18:23.289Z,99.90
2018-09-29T00:19:33.392Z,99.90
2018-09-29T00:20:43.619Z,99.90
2018-09-29T00:21:53.568Z,99.90
2018-09-29T00:23:03.523Z,99.90
2018-09-29T00:24:13.694Z,99.90
2018-09-29T00:25:23.706Z,99.90
2018-09-29T00:26:33.823Z,99.90
2018-09-29T00:27:44.088Z,99.90
2018-09-29T00:28:54.094Z,99.90
2018-09-29T00:30:04.221Z,99.90
2018-09-29T00:31:14.601Z,99.90
2018-09-29T00:32:24.415Z,99.90
2018-09-29T00:33:34.555Z,99.90
2018-09-29T00:34:44.934Z,99.90
2018-09-29T00:35:54.801Z,99.90
2018-09-29T00:37:04.770Z,99.90
2018-09-29T00:38:14.835Z,99.90
2018-09-29T00:39:24.934Z,99.90
2018-09-29T00:40:35.464Z,99.90
2018-09-29T00:41:45.655Z,99.90
2018-09-29T00:42:55.675Z,99.90
2018-09-29T00:44:05.580Z,99.90
2018-09-29T00:45:15.919Z,99.90
2018-09-29T00:46:26.008Z,99.90
2018-09-29T00:47:36.109Z,99.90
2018-09-29T00:48:46.317Z,99.90
2018-09-29T00:49:56.564Z,99.90
2018-09-29T00:51:06.679Z,99.90
2018-09-29T00:52:16.919Z,99.90
2018-09-29T00:53:27.163Z,99.90
2018-09-29T00:54:37.129Z,99.90
2018-09-29T00:55:47.170Z,99.90
2018-09-29T00:56:57.082Z,99.90
2018-09-29T00:58:07.110Z,99.90
2018-09-29T00:59:17.274Z,99.90
2018-09-29T01:00:27.583Z,99.90
2018-09-29T01:01:41.562Z,99.90
2018-09-29T01:02:51.762Z,99.90
2018-09-29T01:04:01.896Z,99.90
2018-09-29T01:05:12.434Z,99.90
2018-09-29T01:06:22.346Z,99.90
2018-09-29T01:07:32.166Z,99.90
2018-09-29T01:08:42.177Z,99.90
2018-09-29T01:09:52.475Z,99.90
2018-09-29T01:11:06.223Z,99.90
2018-09-29T01:12:16.421Z,99.90
2018-09-29T01:13:26.196Z,99.90
2018-09-29T01:14:36.508Z,99.90
2018-09-29T01:15:46.560Z,99.90
2018-09-29T01:16:56.667Z,99.90
2018-09-29T01:18:06.989Z,99.90
2018-09-29T01:19:16.857Z,99.90
2018-09-29T01:20:27.045Z,99.90
2018-09-29T01:21:37.076Z,99.90
2018-09-29T01:22:47.363Z,99.90
2018-09-29T01:23:57.500Z,99.90
2018-09-29T01:25:07.589Z,99.90
2018-09-29T01:26:17.623Z,99.90
2018-09-29T01:27:27.850Z,99.90
2018-09-29T01:28:37.999Z,99.90
2018-09-29T01:29:48.260Z,99.90
2018-09-29T01:30:58.405Z,99.90
2018-09-29T01:32:11.881Z,99.90
2018-09-29T01:33:21.981Z,99.90
2018-09-29T01:34:32.020Z,99.90
2018-09-29T01:35:42.031Z,99.90
2018-09-29T01:36:52.092Z,99.90
2018-09-29T01:38:02.167Z,99.90
2018-09-29T01:39:12.485Z,99.90
2018-09-29T01:40:22.445Z,99.90
2018-09-29T01:41:32.602Z,99.90
2018-09-29T01:42:42.419Z,99.90
2018-09-29T01:43:52.502Z,99.90
2018-09-29T01:45:02.726Z,99.90
2018-09-29T01:46:13.104Z,99.90
2018-09-29T01:47:28.613Z,99.90
2018-09-29T01:48:38.892Z,99.90
2018-09-29T01:49:48.718Z,99.90
2018-09-29T01:50:58.884Z,99.90
2018-09-29T01:52:08.841Z,99.90
2018-09-29T01:53:18.756Z,99.90
2018-09-29T01:54:28.901Z,99.90
2018-09-29T01:55:38.974Z,99.90
2018-09-29T01:56:49.251Z,99.90
2018-09-29T01:57:59.495Z,99.90
2018-09-29T01:59:09.772Z,99.90
2018-09-29T02:00:19.991Z,99.90
2018-09-29T02:01:30.143Z,99.90
2018-09-29T02:02:40.341Z,99.90
2018-09-29T02:03:53.979Z,99.90
2018-09-29T02:05:04.065Z,99.90
2018-09-29T02:06:14.024Z,99.90
2018-09-29T02:07:24.173Z,99.90
2018-09-29T02:08:33.929Z,99.90
2018-09-29T02:09:44.131Z,99.90
2018-09-29T02:10:54.332Z,99.90
2018-09-29T02:12:04.320Z,99.80
2018-09-29T02:13:21.781Z,99.90
2018-09-29T02:14:31.671Z,99.90
2018-09-29T02:15:41.651Z,99.90
2018-09-29T02:16:51.789Z,99.90
2018-09-29T02:18:02.215Z,99.90
2018-09-29T02:19:11.981Z,99.90
2018-09-29T02:20:21.774Z,99.60
2018-09-29T02:21:32.161Z,99.30
2018-09-29T02:22:41.923Z,99.50
2018-09-29T02:23:55.082Z,99.70
2018-09-29T02:25:05.258Z,99.50
2018-09-29T02:26:15.368Z,99.60
2018-09-29T02:27:25.457Z,99.60
2018-09-29T02:28:35.415Z,99.60
2018-09-29T02:29:45.548Z,99.40
2018-09-29T02:30:55.779Z,99.10
2018-09-29T02:32:05.920Z,99.40
2018-09-29T02:33:15.790Z,99.50
2018-09-29T02:34:25.628Z,99.70
2018-09-29T02:35:35.670Z,99.10
2018-09-29T02:36:45.585Z,99.10
2018-09-29T02:37:55.715Z,99.10
2018-09-29T02:39:08.711Z,99.00
2018-09-29T02:40:18.614Z,99.10
2018-09-29T02:41:28.899Z,98.80
2018-09-29T02:42:39.103Z,99.00
2018-09-29T02:43:49.138Z,98.50
2018-09-29T02:44:59.458Z,98.70
2018-09-29T02:46:09.827Z,98.40
2018-09-29T02:47:19.824Z,98.10
2018-09-29T02:48:29.629Z,98.20
2018-09-29T02:49:39.400Z,98.20
2018-09-29T02:50:49.498Z,98.00
2018-09-29T02:51:59.567Z,97.90
2018-09-29T02:53:09.609Z,98.20
2018-09-29T02:54:19.469Z,98.50
2018-09-29T02:55:29.273Z,98.60
2018-09-29T02:56:39.877Z,98.20
2018-09-29T02:57:50.158Z,98.00
2018-09-29T02:59:00.412Z,97.60
2018-09-29T03:00:10.719Z,97.50
2018-09-29T03:01:20.658Z,97.70
2018-09-29T03:02:30.740Z,97.90
2018-09-29T03:03:40.768Z,97.80
2018-09-29T03:04:51.111Z,97.70
2018-09-29T03:06:01.524Z,98.00
2018-09-29T03:07:11.336Z,98.30
2018-09-29T03:08:20.826Z,98.70
2018-09-29T03:09:30.287Z,98.60
2018-09-29T03:10:39.876Z,98.40
2018-09-29T03:11:49.537Z,98.40
2018-09-29T03:12:59.102Z,98.20
2018-09-29T03:14:08.838Z,98.10
2018-09-29T03:15:18.431Z,98.10
2018-09-29T03:16:28.048Z,98.00
2018-09-29T03:17:37.596Z,98.00
2018-09-29T03:18:47.417Z,98.20
2018-09-29T03:19:57.116Z,98.40
2018-09-29T03:21:06.975Z,98.20
2018-09-29T03:22:16.546Z,98.10
2018-09-29T03:23:26.142Z,98.10
2018-09-29T03:24:35.636Z,98.30
2018-09-29T03:25:45.501Z,98.20
2018-09-29T03:26:55.122Z,98.30
2018-09-29T03:28:04.692Z,98.50
2018-09-29T03:29:21.000Z,98.50
2018-09-29T03:30:30.524Z,98.60
2018-09-29T03:31:40.212Z,98.70
2018-09-29T03:32:49.722Z,98.50
2018-09-29T03:33:59.602Z,98.40
2018-09-29T03:35:09.196Z,98.20
2018-09-29T03:36:18.795Z,98.10
2018-09-29T03:37:28.478Z,98.30
2018-09-29T03:38:38.200Z,98.60
2018-09-29T03:39:51.185Z,98.80
2018-09-29T03:41:01.025Z,99.10
2018-09-29T03:42:10.839Z,99.00
2018-09-29T03:43:20.487Z,99.00
2018-09-29T03:44:30.273Z,99.00
2018-09-29T03:45:43.902Z,99.00
2018-09-29T03:46:59.889Z,99.10
2018-09-29T03:48:09.512Z,98.50
2018-09-29T03:49:19.392Z,98.50
2018-09-29T03:50:32.380Z,98.50
2018-09-29T03:51:42.275Z,98.50
2018-09-29T03:52:51.711Z,98.70
2018-09-29T03:54:01.389Z,98.80
2018-09-29T03:55:10.971Z,98.90
2018-09-29T03:56:25.974Z,98.90
2018-09-29T03:57:35.574Z,98.80
2018-09-29T03:58:45.307Z,98.70
2018-09-29T03:59:54.955Z,98.70
2018-09-29T04:01:10.063Z,98.50
2018-09-29T04:02:19.878Z,98.70
2018-09-29T04:03:29.451Z,98.80
2018-09-29T04:04:39.018Z,98.90
2018-09-29T04:05:48.726Z,98.90
2018-09-29T04:07:01.901Z,99.00
2018-09-29T04:08:11.481Z,99.30
2018-09-29T04:09:21.197Z,99.50
2018-09-29T04:10:31.102Z,99.70
2018-09-29T04:11:40.700Z,99.70
2018-09-29T04:12:50.335Z,99.70
2018-09-29T04:13:59.861Z,99.70
2018-09-29T04:15:13.355Z,99.70
2018-09-29T04:16:23.076Z,99.70
2018-09-29T04:17:32.728Z,99.50
2018-09-29T04:18:42.676Z,99.40
2018-09-29T04:20:07.310Z,99.50
2018-09-29T04:21:16.966Z,99.80
2018-09-29T04:22:26.639Z,99.80
2018-09-29T04:23:36.226Z,99.90
2018-09-29T04:24:45.742Z,99.90
2018-09-29T04:26:00.745Z,99.80
2018-09-29T04:27:10.485Z,99.80
2018-09-29T04:28:20.270Z,99.60
2018-09-29T04:29:29.808Z,99.40
2018-09-29T04:30:43.354Z,99.20
2018-09-29T04:31:53.116Z,98.90
2018-09-29T04:33:02.970Z,98.80
2018-09-29T04:34:13.244Z,98.90
2018-09-29T04:35:28.005Z,98.80
2018-09-29T04:36:37.550Z,98.80
2018-09-29T04:37:47.335Z,98.80
2018-09-29T04:38:57.145Z,98.80
2018-09-29T04:40:06.837Z,98.80
2018-09-29T04:41:16.989Z,98.50
2018-09-29T04:42:26.763Z,98.50
2018-09-29T04:43:36.518Z,98.60
2018-09-29T04:44:46.085Z,98.30
2018-09-29T04:45:55.741Z,98.40
2018-09-29T04:47:05.282Z,98.40
2018-09-29T04:48:14.943Z,98.50
2018-09-29T04:49:24.825Z,98.50
2018-09-29T04:50:34.696Z,98.60
2018-09-29T04:51:44.449Z,98.50
2018-09-29T04:52:54.178Z,98.60
2018-09-29T04:54:03.854Z,98.80
2018-09-29T04:55:13.653Z,99.00
2018-09-29T04:56:23.565Z,98.50
2018-09-29T04:57:33.252Z,98.20
2018-09-29T04:58:42.736Z,98.10
2018-09-29T04:59:52.753Z,97.90
2018-09-29T05:01:02.301Z,98.20
2018-09-29T05:02:11.808Z,98.30
2018-09-29T05:03:21.477Z,98.40
2018-09-29T05:04:36.765Z,98.20
2018-09-29T05:05:46.632Z,98.00
2018-09-29T05:06:56.372Z,97.90
2018-09-29T05:08:06.323Z,98.00
2018-09-29T05:09:15.950Z,97.90
2018-09-29T05:10:25.852Z,98.00
2018-09-29T05:11:35.584Z,98.00
2018-09-29T05:12:45.187Z,97.70
2018-09-29T05:13:54.955Z,97.50
2018-09-29T05:15:04.806Z,97.40
2018-09-29T05:16:14.380Z,97.50
2018-09-29T05:17:24.223Z,97.50
2018-09-29T05:18:33.937Z,97.40
2018-09-29T05:19:43.615Z,97.30
2018-09-29T05:20:53.381Z,97.30
2018-09-29T05:22:02.870Z,97.30
2018-09-29T05:23:12.926Z,97.40
2018-09-29T05:24:22.711Z,97.20
2018-09-29T05:25:32.293Z,97.10
2018-09-29T05:26:41.770Z,97.20
2018-09-29T05:27:51.579Z,97.30
2018-09-29T05:29:01.289Z,97.30
2018-09-29T05:30:11.472Z,97.40
2018-09-29T05:32:35.961Z,97.60
2018-09-29T05:33:45.577Z,97.40
2018-09-29T05:34:55.210Z,97.10
2018-09-29T05:36:04.712Z,97.10
2018-09-29T05:37:18.037Z,97.20
2018-09-29T05:38:27.883Z,97.20
2018-09-29T05:39:37.534Z,97.10
2018-09-29T05:40:47.412Z,97.10
2018-09-29T05:42:00.477Z,97.00
2018-09-29T05:43:10.075Z,97.00
2018-09-29T05:44:19.729Z,97.10
2018-09-29T05:45:29.290Z,97.10
2018-09-29T05:46:38.966Z,97.10
2018-09-29T05:47:48.586Z,96.80
2018-09-29T05:48:58.322Z,96.60
2018-09-29T05:50:08.222Z,96.60
2018-09-29T05:51:18.145Z,96.70
2018-09-29T05:52:27.958Z,97.00
2018-09-29T05:53:37.486Z,97.20
2018-09-29T05:54:47.001Z,97.20
2018-09-29T05:55:56.585Z,97.20
2018-09-29T05:57:06.093Z,97.10
2018-09-29T05:58:15.842Z,97.10
2018-09-29T05:59:25.470Z,97.00
2018-09-29T06:00:35.172Z,96.90
2018-09-29T06:01:44.725Z,97.20
2018-09-29T06:02:54.393Z,97.30
2018-09-29T06:04:04.250Z,97.30
2018-09-29T06:05:13.844Z,97.50
2018-09-29T06:06:23.493Z,97.30
2018-09-29T06:07:33.312Z,97.00
2018-09-29T06:08:42.979Z,97.00
2018-09-29T06:09:52.620Z,97.20
2018-09-29T06:11:02.335Z,97.40
2018-09-29T06:12:12.057Z,97.50
2018-09-29T06:13:21.650Z,97.40
2018-09-29T06:14:31.516Z,97.40
2018-09-29T06:15:41.219Z,97.20
2018-09-29T06:16:54.711Z,97.40
2018-09-29T06:18:04.460Z,97.30
2018-09-29T06:19:14.201Z,97.10
2018-09-29T06:20:23.869Z,96.90
2018-09-29T06:21:33.531Z,97.00
2018-09-29T06:22:43.346Z,97.20
2018-09-29T06:23:53.001Z,97.20
2018-09-29T06:25:02.496Z,97.40
2018-09-29T06:26:12.065Z,97.40
2018-09-29T06:27:21.785Z,97.30
2018-09-29T06:28:31.312Z,97.30
2018-09-29T06:29:40.810Z,97.40
2018-09-29T06:30:50.701Z,97.40
2018-09-29T06:32:00.293Z,97.40
2018-09-29T06:33:10.161Z,97.30
2018-09-29T06:34:19.767Z,97.40
2018-09-29T06:35:29.504Z,97.40
2018-09-29T06:36:39.161Z,97.40
2018-09-29T06:37:48.931Z,97.30
2018-09-29T06:38:58.499Z,97.20
2018-09-29T06:40:08.186Z,97.30
2018-09-29T06:41:17.811Z,97.30
2018-09-29T06:42:27.380Z,97.30
2018-09-29T06:43:37.069Z,97.40
2018-09-29T06:44:46.901Z,97.50
2018-09-29T06:45:56.484Z,97.70
2018-09-29T06:47:06.266Z,97.60
2018-09-29T06:48:21.445Z,97.50
2018-09-29T06:49:31.070Z,97.50
2018-09-29T06:50:40.835Z,97.60
2018-09-29T06:51:50.605Z,97.60
2018-09-29T06:53:05.720Z,97.40
2018-09-29T06:54:15.404Z,97.50
2018-09-29T06:55:25.175Z,97.50
2018-09-29T06:56:34.795Z,97.40
2018-09-29T06:57:44.306Z,97.40
2018-09-29T06:58:53.886Z,97.30
2018-09-29T07:00:03.490Z,97.50
2018-09-29T07:01:12.965Z,97.70
2018-09-29T07:02:22.493Z,97.70
2018-09-29T07:03:32.399Z,97.50
2018-09-29T07:04:42.130Z,97.40
2018-09-29T07:05:51.814Z,97.30
2018-09-29T07:07:01.485Z,97.30
2018-09-29T07:08:11.384Z,97.30
2018-09-29T07:09:21.090Z,97.60
2018-09-29T07:10:30.904Z,97.50
2018-09-29T07:11:40.561Z,97.50
2018-09-29T07:12:50.154Z,97.40
2018-09-29T07:13:59.844Z,97.50
2018-09-29T07:15:09.629Z,97.60
2018-09-29T07:16:19.171Z,97.80
2018-09-29T07:17:28.808Z,97.80
2018-09-29T07:18:38.486Z,97.60
2018-09-29T07:19:48.164Z,97.20
2018-09-29T07:21:01.635Z,97.20
2018-09-29T07:22:11.206Z,97.20
2018-09-29T07:23:20.793Z,97.30
2018-09-29T07:24:30.670Z,97.30
2018-09-29T07:25:40.298Z,97.20
2018-09-29T07:26:50.109Z,97.30
2018-09-29T07:27:59.713Z,97.20
2018-09-29T07:29:09.413Z,97.20
2018-09-29T07:30:19.152Z,97.20
2018-09-29T07:31:28.637Z,97.10
2018-09-29T07:32:41.446Z,97.00
2018-09-29T07:33:51.186Z,97.00
2018-09-29T07:35:00.774Z,97.10
2018-09-29T07:36:10.305Z,97.10
2018-09-29T07:37:20.035Z,97.10
2018-09-29T07:38:29.621Z,96.90
2018-09-29T07:39:39.172Z,97.30
2018-09-29T07:40:48.693Z,97.20
2018-09-29T07:41:58.521Z,97.00
2018-09-29T07:43:08.173Z,96.80
2018-09-29T07:44:17.865Z,96.90
2018-09-29T07:45:27.802Z,96.60
2018-09-29T07:46:37.390Z,96.50
2018-09-29T07:47:47.037Z,96.50
2018-09-29T07:48:56.733Z,96.60
2018-09-29T07:50:06.558Z,96.70
2018-09-29T07:51:16.238Z,96.90
2018-09-29T07:52:25.935Z,96.80
2018-09-29T07:53:35.783Z,96.90
2018-09-29T07:54:45.341Z,96.60
2018-09-29T07:55:54.772Z,96.20
2018-09-29T07:57:04.498Z,96.20
2018-09-29T07:58:14.014Z,96.10
2018-09-29T07:59:23.681Z,96.00
2018-09-29T08:00:33.423Z,95.90
2018-09-29T08:01:43.129Z,95.90
2018-09-29T08:02:52.706Z,96.00
2018-09-29T08:04:02.234Z,96.10
2018-09-29T08:05:11.953Z,96.00
2018-09-29T08:06:21.569Z,95.80
2018-09-29T08:07:31.415Z,95.90
2018-09-29T08:08:41.395Z,95.80
2018-09-29T08:09:51.137Z,95.80
2018-09-29T08:11:00.907Z,95.70
2018-09-29T08:12:10.572Z,95.70
2018-09-29T08:13:20.302Z,95.50
2018-09-29T08:14:30.099Z,95.60
2018-09-29T08:15:39.694Z,95.80
2018-09-29T08:16:49.437Z,95.80
2018-09-29T08:17:59.213Z,95.80
2018-09-29T08:19:09.064Z,95.80
2018-09-29T08:20:18.726Z,95.90
2018-09-29T08:21:28.550Z,95.80
2018-09-29T08:22:38.323Z,95.80
2018-09-29T08:23:48.145Z,95.70
2018-09-29T08:24:58.060Z,95.60
2018-09-29T08:26:07.515Z,95.60
2018-09-29T08:27:17.031Z,95.50
2018-09-29T08:28:26.845Z,95.30
2018-09-29T08:29:36.430Z,95.20
2018-09-29T08:30:46.012Z,95.20
2018-09-29T08:31:55.706Z,95.20
2018-09-29T08:33:10.750Z,95.30
2018-09-29T08:34:20.490Z,95.10
2018-09-29T08:35:30.031Z,95.00
2018-09-29T08:36:39.755Z,94.90
2018-09-29T08:37:49.715Z,94.80
2018-09-29T08:39:05.097Z,95.20
2018-09-29T08:40:14.731Z,95.20
2018-09-29T08:41:24.449Z,95.30
2018-09-29T08:42:34.324Z,95.20
2018-09-29T08:43:44.246Z,95.10
2018-09-29T08:44:53.767Z,95.10
2018-09-29T08:46:03.581Z,95.30
2018-09-29T08:47:13.054Z,95.30
2018-09-29T08:48:22.662Z,95.40
2018-09-29T08:49:35.808Z,95.20
2018-09-29T08:50:45.589Z,95.30
2018-09-29T08:51:55.370Z,95.10
2018-09-29T08:53:05.133Z,95.20
2018-09-29T08:54:15.022Z,95.30
2018-09-29T08:55:24.551Z,95.20
2018-09-29T08:56:34.095Z,95.00
2018-09-29T08:57:43.718Z,95.00
2018-09-29T08:58:53.355Z,95.00
2018-09-29T09:00:02.877Z,95.10
2018-09-29T09:01:12.611Z,94.80
2018-09-29T09:02:22.248Z,94.80
2018-09-29T09:03:41.110Z,95.00
2018-09-29T09:04:50.812Z,95.00
2018-09-29T09:06:00.600Z,95.00
2018-09-29T09:07:10.206Z,94.90
2018-09-29T09:08:19.882Z,95.10
2018-09-29T09:09:33.438Z,95.00
2018-09-29T09:10:43.495Z,94.90
2018-09-29T09:11:53.309Z,94.90
2018-09-29T09:13:02.805Z,95.00
2018-09-29T09:14:16.284Z,95.20
2018-09-29T09:15:26.081Z,95.10
2018-09-29T09:16:35.954Z,94.90
2018-09-29T09:17:45.391Z,94.80
2018-09-29T09:18:55.130Z,94.80
2018-09-29T09:20:08.187Z,94.80
2018-09-29T09:21:17.826Z,94.80
2018-09-29T09:22:27.629Z,94.90
2018-09-29T09:23:37.316Z,95.00
2018-09-29T09:24:50.868Z,95.10
2018-09-29T09:26:00.384Z,95.10
2018-09-29T09:27:10.062Z,95.00
2018-09-29T09:28:19.781Z,94.90
2018-09-29T09:29:29.401Z,94.80
2018-09-29T09:30:42.774Z,94.80
2018-09-29T09:31:52.505Z,95.00
2018-09-29T09:33:02.293Z,95.20
2018-09-29T09:34:12.121Z,95.40
2018-09-29T09:35:25.038Z,95.30
2018-09-29T09:36:34.717Z,94.90
2018-09-29T09:37:44.361Z,94.80
2018-09-29T09:38:54.129Z,94.90
2018-09-29T09:40:10.323Z,95.00
2018-09-29T09:41:19.991Z,95.00
2018-09-29T09:42:29.565Z,94.80
2018-09-29T09:43:39.166Z,94.90
2018-09-29T09:44:48.859Z,95.00
2018-09-29T09:45:58.553Z,95.00
2018-09-29T09:47:08.334Z,94.90
2018-09-29T09:48:17.938Z,94.80
2018-09-29T09:49:27.647Z,94.80
2018-09-29T09:50:37.551Z,94.70
2018-09-29T09:51:47.126Z,94.90
2018-09-29T09:52:57.077Z,95.10
2018-09-29T09:54:06.858Z,94.90
2018-09-29T09:55:16.526Z,94.80
2018-09-29T09:56:26.193Z,94.80
2018-09-29T09:57:35.963Z,94.70
2018-09-29T09:58:45.494Z,94.40
2018-09-29T09:59:55.268Z,94.50
2018-09-29T10:01:14.049Z,94.50
2018-09-29T10:02:29.160Z,94.50
2018-09-29T10:03:38.822Z,94.50
2018-09-29T10:04:48.418Z,94.60
2018-09-29T10:05:58.154Z,94.50
2018-09-29T10:07:10.846Z,94.40
2018-09-29T10:08:20.826Z,94.30
2018-09-29T10:09:30.484Z,94.40
2018-09-29T10:10:40.327Z,94.80
2018-09-29T10:11:53.654Z,94.90
2018-09-29T10:13:03.320Z,94.70
2018-09-29T10:14:12.948Z,94.80
2018-09-29T10:15:22.867Z,94.40
2018-09-29T10:16:32.747Z,94.50
2018-09-29T10:17:42.294Z,94.60
2018-09-29T10:18:52.198Z,94.80
2018-09-29T10:20:01.878Z,94.80
2018-09-29T10:21:11.299Z,94.60
2018-09-29T10:22:24.817Z,94.50
2018-09-29T10:23:34.475Z,94.70
2018-09-29T10:24:44.067Z,94.70
2018-09-29T10:25:53.625Z,94.40
2018-09-29T10:27:03.376Z,94.30
2018-09-29T10:28:16.166Z,94.20
2018-09-29T10:29:25.987Z,94.20
2018-09-29T10:30:35.571Z,94.10
2018-09-29T10:31:45.174Z,94.10
2018-09-29T10:32:55.114Z,94.00
2018-09-29T10:34:04.804Z,94.10
2018-09-29T10:35:14.427Z,94.20
2018-09-29T10:36:24.313Z,94.20
2018-09-29T10:37:33.920Z,94.00
2018-09-29T10:38:47.455Z,93.90
2018-09-29T10:39:57.369Z,94.00
2018-09-29T10:41:07.156Z,93.90
2018-09-29T10:42:16.668Z,93.90
2018-09-29T10:43:29.492Z,93.80
2018-09-29T10:44:39.292Z,93.70
2018-09-29T10:45:49.099Z,93.70
2018-09-29T10:46:58.846Z,93.60
2018-09-29T10:48:11.957Z,93.70
2018-09-29T10:49:21.627Z,93.60
2018-09-29T10:50:31.280Z,93.20
2018-09-29T10:51:41.014Z,93.10
2018-09-29T10:52:51.031Z,93.30
2018-09-29T10:54:00.862Z,93.40
2018-09-29T10:55:10.404Z,93.30
2018-09-29T10:56:20.056Z,93.40
2018-09-29T10:57:29.652Z,93.50
2018-09-29T10:58:39.339Z,93.20
2018-09-29T10:59:48.895Z,93.10
2018-09-29T11:00:58.500Z,92.90
2018-09-29T11:02:08.171Z,92.90
2018-09-29T11:03:17.605Z,92.70
2018-09-29T11:04:27.357Z,92.70
2018-09-29T11:05:37.053Z,92.80
2018-09-29T11:06:53.121Z,92.80
2018-09-29T11:08:02.687Z,92.80
2018-09-29T11:09:17.938Z,92.70
2018-09-29T11:10:27.733Z,92.70
2018-09-29T11:11:37.347Z,92.70
2018-09-29T11:12:47.192Z,92.90
2018-09-29T11:13:56.908Z,92.80
2018-09-29T11:15:06.369Z,92.60
2018-09-29T11:16:16.086Z,92.70
2018-09-29T11:17:25.818Z,92.60
2018-09-29T11:18:35.523Z,92.70
2018-09-29T11:19:48.755Z,92.50
2018-09-29T11:20:58.571Z,92.30
2018-09-29T11:22:07.971Z,92.10
2018-09-29T11:23:17.579Z,92.10
2018-09-29T11:24:39.377Z,92.00
2018-09-29T11:25:48.993Z,92.20
2018-09-29T11:26:58.685Z,92.20
2018-09-29T11:28:08.359Z,92.20
2018-09-29T11:29:18.074Z,92.20
2018-09-29T11:30:31.457Z,92.20
2018-09-29T11:31:41.263Z,92.30
2018-09-29T11:32:50.884Z,92.30
2018-09-29T11:34:00.606Z,91.90
2018-09-29T11:35:10.281Z,91.50
2018-09-29T11:36:23.837Z,91.50
2018-09-29T11:37:33.566Z,91.70
2018-09-29T11:38:43.216Z,91.70
2018-09-29T11:39:52.898Z,91.50
2018-09-29T11:41:02.744Z,91.40
2018-09-29T11:42:15.726Z,91.20
2018-09-29T11:43:25.310Z,91.40
2018-09-29T11:44:34.717Z,91.50
2018-09-29T11:45:44.609Z,91.30
2018-09-29T11:46:59.717Z,91.40
2018-09-29T11:48:09.333Z,91.30
2018-09-29T11:49:19.195Z,91.50
2018-09-29T11:50:28.914Z,91.60
2018-09-29T11:51:38.576Z,91.20
2018-09-29T11:52:48.241Z,91.30
2018-09-29T11:53:58.165Z,91.00
2018-09-29T11:55:07.830Z,91.10
2018-09-29T11:56:17.657Z,91.20
2018-09-29T11:57:27.420Z,91.30
2018-09-29T11:58:37.021Z,91.10
2018-09-29T11:59:46.742Z,91.00
2018-09-29T12:00:56.334Z,90.70
2018-09-29T12:02:05.963Z,90.60
2018-09-29T12:03:15.601Z,90.50
2018-09-29T12:04:25.325Z,90.30
2018-09-29T12:05:34.926Z,90.30
2018-09-29T12:06:44.624Z,90.50
2018-09-29T12:07:54.385Z,90.70
2018-09-29T12:09:05.795Z,90.60
2018-09-29T12:10:15.401Z,90.60
2018-09-29T12:11:25.194Z,90.30
2018-09-29T12:12:34.948Z,90.60
2018-09-29T12:13:44.848Z,90.20
2018-09-29T12:14:54.645Z,90.00
2018-09-29T12:16:04.332Z,90.10
2018-09-29T12:17:17.886Z,90.20
2018-09-29T12:18:27.567Z,90.30
2018-09-29T12:19:37.346Z,90.30
2018-09-29T12:20:47.094Z,90.30
2018-09-29T12:21:56.918Z,90.10
2018-09-29T12:23:06.751Z,90.00
2018-09-29T12:24:16.395Z,90.10
2018-09-29T12:25:26.156Z,89.40
2018-09-29T12:26:36.058Z,89.10
2018-09-29T12:27:45.984Z,89.20
2018-09-29T12:28:55.617Z,89.60
2018-09-29T12:30:05.782Z,89.60
2018-09-29T12:31:15.488Z,88.60
2018-09-29T12:32:25.190Z,88.70
2018-09-29T12:33:34.825Z,88.90
2018-09-29T12:34:44.509Z,88.70
2018-09-29T12:35:54.976Z,88.20
2018-09-29T12:37:04.904Z,88.10
2018-09-29T12:38:14.372Z,88.00
2018-09-29T12:39:23.841Z,87.70
2018-09-29T12:40:33.591Z,88.10
2018-09-29T12:41:43.317Z,87.70
2018-09-29T12:42:52.960Z,87.50
2018-09-29T12:44:02.817Z,87.70
2018-09-29T12:45:12.406Z,87.50
2018-09-29T12:46:22.114Z,87.40
2018-09-29T12:47:31.693Z,87.60
2018-09-29T12:48:41.430Z,86.60
2018-09-29T12:49:51.199Z,87.00
2018-09-29T12:51:01.305Z,86.80
2018-09-29T12:52:10.897Z,86.50
2018-09-29T12:53:20.656Z,86.40
2018-09-29T12:54:30.351Z,86.00
2018-09-29T12:55:39.981Z,86.10
2018-09-29T12:56:49.562Z,86.10
2018-09-29T12:57:59.338Z,85.60
2018-09-29T12:59:08.958Z,85.40
2018-09-29T13:00:18.571Z,85.40
2018-09-29T13:01:28.293Z,85.70
2018-09-29T13:02:37.942Z,85.60
2018-09-29T13:03:47.618Z,85.50
2018-09-29T13:05:03.842Z,84.70
2018-09-29T13:06:13.677Z,84.40
2018-09-29T13:07:23.348Z,83.60
2018-09-29T13:08:32.998Z,83.80
2018-09-29T13:09:42.549Z,83.50
2018-09-29T13:10:52.385Z,83.70
2018-09-29T13:12:02.119Z,82.90
2018-09-29T13:13:11.614Z,82.70
2018-09-29T13:14:21.280Z,82.60
2018-09-29T13:15:30.865Z,82.10
2018-09-29T13:16:40.456Z,82.20
2018-09-29T13:17:50.020Z,82.00
2018-09-29T13:18:59.734Z,82.20
2018-09-29T13:20:09.411Z,82.30
2018-09-29T13:21:18.996Z,82.10
2018-09-29T13:22:31.866Z,81.70
2018-09-29T13:23:41.722Z,80.80
2018-09-29T13:24:51.340Z,80.10
2018-09-29T13:26:01.201Z,80.30
2018-09-29T13:27:11.012Z,79.50
2018-09-29T13:28:20.661Z,79.70
2018-09-29T13:29:30.152Z,79.60
2018-09-29T13:30:39.836Z,79.50
2018-09-29T13:31:49.346Z,79.00
2018-09-29T13:32:58.975Z,78.30
2018-09-29T13:34:08.860Z,77.70
2018-09-29T13:35:18.571Z,77.20
2018-09-29T13:36:28.105Z,77.30
2018-09-29T13:37:37.883Z,76.90
2018-09-29T13:38:49.248Z,76.80
2018-09-29T13:39:58.923Z,77.00
2018-09-29T13:41:08.880Z,76.70
2018-09-29T13:42:18.500Z,75.70
2018-09-29T13:43:31.697Z,75.00
2018-09-29T13:44:41.459Z,75.00
2018-09-29T13:45:51.079Z,74.50
2018-09-29T13:47:00.942Z,74.10
2018-09-29T13:48:10.498Z,74.20
2018-09-29T13:49:20.321Z,73.90
2018-09-29T13:50:29.955Z,73.70
2018-09-29T13:51:39.686Z,73.70
2018-09-29T13:52:49.473Z,73.20
2018-09-29T13:54:03.305Z,73.10
2018-09-29T13:55:12.997Z,72.70
2018-09-29T13:56:22.782Z,72.90
2018-09-29T13:57:32.471Z,72.40
2018-09-29T13:58:42.300Z,72.00
2018-09-29T13:59:51.928Z,71.70
2018-09-29T14:01:01.701Z,71.00
2018-09-29T14:02:11.329Z,70.40
2018-09-29T14:03:20.832Z,71.00
2018-09-29T14:04:30.553Z,71.60
2018-09-29T14:05:40.033Z,71.10
2018-09-29T14:06:49.761Z,70.90
2018-09-29T14:07:59.470Z,71.70
2018-09-29T14:09:10.173Z,70.50
2018-09-29T14:10:23.140Z,71.10
2018-09-29T14:11:32.990Z,71.50
2018-09-29T14:12:42.606Z,71.20
2018-09-29T14:13:52.265Z,71.20
2018-09-29T14:15:01.945Z,70.80
2018-09-29T14:16:11.617Z,70.50
2018-09-29T14:17:21.467Z,70.40
2018-09-29T14:18:31.079Z,70.20
2018-09-29T14:19:40.574Z,71.10
2018-09-29T14:20:50.253Z,71.00
2018-09-29T14:22:00.090Z,71.40
2018-09-29T14:23:09.738Z,71.50
2018-09-29T14:24:19.246Z,71.70
2018-09-29T14:25:28.673Z,72.20
2018-09-29T14:26:38.213Z,72.60
2018-09-29T14:27:47.982Z,73.00
2018-09-29T14:28:57.478Z,73.30
2018-09-29T14:30:07.035Z,73.70
2018-09-29T14:31:16.930Z,74.10
2018-09-29T14:32:30.594Z,74.00
2018-09-29T14:33:40.167Z,74.60
2018-09-29T14:34:49.731Z,74.90
2018-09-29T14:35:59.249Z,75.50
2018-09-29T14:37:08.962Z,75.90
2018-09-29T14:38:22.602Z,75.80
2018-09-29T14:39:32.469Z,75.60
2018-09-29T14:40:42.345Z,76.40
2018-09-29T14:41:52.315Z,76.40
2018-09-29T14:43:01.949Z,76.20
2018-09-29T14:44:11.599Z,76.30
2018-09-29T14:45:21.290Z,76.80
2018-09-29T14:46:30.926Z,76.90
2018-09-29T14:48:50.060Z,77.10
2018-09-29T14:49:59.673Z,77.30
2018-09-29T14:51:09.447Z,76.80
2018-09-29T14:52:19.153Z,76.50
2018-09-29T14:53:28.990Z,76.60
2018-09-29T14:54:38.790Z,76.40
2018-09-29T14:55:48.346Z,76.90
2018-09-29T14:56:58.114Z,77.20
2018-09-29T14:58:07.750Z,77.30
2018-09-29T14:59:17.551Z,77.30
2018-09-29T15:00:27.284Z,77.20
2018-09-29T15:01:36.988Z,76.60
2018-09-29T15:02:46.570Z,76.40
2018-09-29T15:04:01.545Z,76.20
2018-09-29T15:05:11.059Z,76.00
2018-09-29T15:06:20.842Z,76.30